Weather at Fürstenfeldbruck Air Base [CLOSED]

Public forecast

Using degrees Celsius for public forecast. Weather courtesy of forecast.io.

Closest aviation weather report (METAR) to Fürstenfeldbruck Air Base

Closest report is Oberpfaffenhofen Airport, 7.5 nm (13.9 km) S.

2022/12/03 16:20 (retrieved 24 minutes ago)

EDMO 031620Z AUTO 09006KT 050V110 5000 // OVC003/// M00/M01 Q1014

Closest aviation forecast (TAF) to Fürstenfeldbruck Air Base

Closest forecast is Munich Airport, 22.6 nm (41.8 km) ENE.

2022/12/03 13:26 Ammendment (retrieved 3 hours ago)

TAF AMD EDDM 031312Z 0313/0418 08005KT 6000 OVC003 BECMG 0316/0318 3000 BR BECMG 0318/0320 1500 BR PROB40 TEMPO 0319/0407 0600 FZFG OVC001 BECMG 0408/0410 7000 BECMG 0410/0412 BKN005 TEMPO 0412/0416 SCT008 BECMG 0416/0418 4000 BR